Chapel Hill, Tennessee
Current Conditions -  °F | °C
As of 8:35 AM on Monday 26 Jan 2015 (Local Time) from KSYI Reporting Station
Overcast Overcast  
Wind Chill: 24°   Ceiling: 1400
Heat Index: 34°   Visibility: 10mi
Dew Point: 30°   Wind: 14mph
Humidity: 87%   Direction: 330°NNW
Pressure: 29.97"   Gusts: NA
Location:  35.63°N, 86.69°W
Report Text: KSYI 261435Z AUTO 33012KT 10SM OVC014 01/M01 A2997 RMK
Loading
Personal Weather Stations






























Interactive Weather Map New forecast layout! Learn more

10-Day Weather Forecast

Advertisements
Track Severe Weather on mobile